Cundys Harbor, Maine
Current Conditions -  °F | °C
As of 2:53 PM on Thursday 30 Oct 2014 (Local Time) from KIWI Reporting Station
Broken Clouds Broken Clouds  
Wind Chill: 54°   Ceiling: 6000
Heat Index: 54°   Visibility: 10mi
Dew Point: 40°   Wind: 5mph
Humidity: 59%   Direction: 330°NNW
Pressure: 29.89"   Gusts: NA
Location:  43.903°N, 69.9809°W
Report Text: KIWI 301853Z AUTO 33004KT 10SM FEW040 BKN060 12/04 A2989 RMK AO2 SLP123 T01220044
Loading
Personal Weather Stations






























Interactive Weather Map
Tropical Storm Tracking
New forecast layout! Learn more

10-Day Weather Forecast

Advertisements
Track Severe Weather on mobile